Terminal Aerodrome Forecast
Issued by NWS Cleveland, OH

Home | Current Version | Previous Version | Text Only | Print | Product List | Glossary On
Versions: 1 2 3 4 5 6 7 8 9 10 11 12 13 14 15 16 17 18 19 20 21
000
FTUS41 KCLE 250500
TAFYNG
TAF
KYNG 250524Z 2506/2606 12008KT P6SM SCT150 OVC200
     FM251500 14010KT P6SM VCSH SCT025 OVC035
      TEMPO 2517/2521 4SM -SHRA BR BKN015 OVC025
     FM252300 28014G22KT P6SM SCT008 OVC015
     FM260300 29008KT P6SM SCT035 BKN100=

USA.gov is the U.S. government's official web portal to all federal, state and local government web resources and services.